createdAt,value
2022-08-03T00:01:31.402Z,3.10
2022-08-03T00:03:58.469Z,4.33
2022-08-03T00:06:25.941Z,3.73
2022-08-03T00:08:53.015Z,3.20
2022-08-03T00:11:20.212Z,4.50
2022-08-03T00:13:47.856Z,3.90
2022-08-03T00:16:15.414Z,3.93
2022-08-03T00:18:42.833Z,3.83
2022-08-03T00:21:10.144Z,3.33
2022-08-03T00:23:50.953Z,3.80
2022-08-03T00:26:21.106Z,3.20
2022-08-03T00:28:48.993Z,2.80
2022-08-03T00:31:16.338Z,3.80
2022-08-03T00:33:57.918Z,3.10
2022-08-03T00:36:27.125Z,3.33
2022-08-03T00:38:54.487Z,4.10
2022-08-03T00:41:21.797Z,4.20
2022-08-03T00:43:48.906Z,3.87
2022-08-03T00:46:20.813Z,3.87
2022-08-03T00:48:53.398Z,4.23
2022-08-03T00:51:24.357Z,3.40
2022-08-03T00:53:51.545Z,3.70
2022-08-03T00:56:19.120Z,4.10
2022-08-03T00:58:47.164Z,4.03
2022-08-03T01:01:15.420Z,3.27
2022-08-03T01:03:42.948Z,4.27
2022-08-03T01:06:22.320Z,3.90
2022-08-03T01:09:09.948Z,3.60
2022-08-03T01:12:04.643Z,3.20
2022-08-03T01:14:44.777Z,3.97
2022-08-03T01:17:31.650Z,4.20
2022-08-03T01:20:09.735Z,3.60
2022-08-03T01:23:22.843Z,3.77
2022-08-03T01:26:55.609Z,3.30
2022-08-03T01:29:56.003Z,3.70
2022-08-03T01:33:00.824Z,4.33
2022-08-03T01:35:39.754Z,3.80
2022-08-03T01:38:14.415Z,3.90
2022-08-03T01:40:44.951Z,3.80
2022-08-03T01:44:28.686Z,4.53
2022-08-03T01:46:06.943Z,4.03
2022-08-03T01:48:36.969Z,3.70
2022-08-03T01:51:04.955Z,3.53
2022-08-03T01:53:34.039Z,3.87
2022-08-03T01:56:04.053Z,3.40
2022-08-03T01:58:32.585Z,3.33
2022-08-03T02:01:03.014Z,3.70
2022-08-03T02:03:32.303Z,3.50
2022-08-03T02:06:56.840Z,4.10
2022-08-03T02:08:49.808Z,3.10
2022-08-03T02:11:17.170Z,4.30
2022-08-03T02:13:46.354Z,3.60
2022-08-03T02:16:14.539Z,4.07
2022-08-03T02:18:43.201Z,3.50
2022-08-03T02:21:12.222Z,3.50
2022-08-03T02:23:59.538Z,3.07
2022-08-03T02:26:30.608Z,3.87
2022-08-03T02:29:08.564Z,3.30
2022-08-03T02:31:38.499Z,3.47
2022-08-03T02:34:13.617Z,3.17
2022-08-03T02:36:46.288Z,3.10
2022-08-03T02:39:20.674Z,3.53
2022-08-03T02:41:53.248Z,3.70
2022-08-03T02:44:26.481Z,3.40
2022-08-03T02:47:04.022Z,3.27
2022-08-03T02:49:40.654Z,3.70
2022-08-03T02:52:23.592Z,3.43
2022-08-03T02:54:56.623Z,3.70
2022-08-03T02:57:27.521Z,4.43
2022-08-03T02:59:56.364Z,3.70
2022-08-03T03:02:25.390Z,4.03
2022-08-03T03:05:51.131Z,3.90
2022-08-03T03:07:51.779Z,3.60
2022-08-03T03:10:24.904Z,3.60
2022-08-03T03:12:57.429Z,3.83
2022-08-03T03:15:27.675Z,3.43
2022-08-03T03:17:55.266Z,3.60
2022-08-03T03:20:30.014Z,4.00
2022-08-03T03:23:00.515Z,3.70
2022-08-03T03:25:32.766Z,3.80
2022-08-03T03:28:06.259Z,3.80
2022-08-03T03:30:34.482Z,3.30
2022-08-03T03:33:02.845Z,3.47
2022-08-03T03:35:30.227Z,3.77
2022-08-03T03:37:57.909Z,4.00
2022-08-03T03:40:25.161Z,3.40
2022-08-03T03:42:52.500Z,3.90
2022-08-03T03:45:21.013Z,3.17
2022-08-03T03:47:48.267Z,3.47
2022-08-03T03:50:18.813Z,4.40
2022-08-03T03:52:45.841Z,3.97
2022-08-03T03:55:17.851Z,3.60
2022-08-03T03:57:46.241Z,3.97
2022-08-03T04:00:17.146Z,4.57
2022-08-03T04:02:45.336Z,3.87
2022-08-03T04:05:32.088Z,4.03
2022-08-03T04:08:28.431Z,3.70
2022-08-03T04:11:38.125Z,3.90
2022-08-03T04:14:37.745Z,3.53
2022-08-03T04:17:09.143Z,4.67
2022-08-03T04:19:46.435Z,4.30
2022-08-03T04:22:20.958Z,3.53
2022-08-03T04:24:52.757Z,4.27
2022-08-03T04:27:27.856Z,5.40
2022-08-03T04:29:57.815Z,6.00
2022-08-03T04:32:28.844Z,4.27
2022-08-03T04:34:56.390Z,3.97
2022-08-03T04:37:47.958Z,3.73
2022-08-03T04:40:25.550Z,4.07
2022-08-03T04:42:58.881Z,4.07
2022-08-03T04:45:27.945Z,4.43
2022-08-03T04:47:56.196Z,4.00
2022-08-03T04:50:23.964Z,17.00
2022-08-03T04:52:51.148Z,10.43
2022-08-03T04:55:33.244Z,11.70
2022-08-03T04:58:01.605Z,30.53
2022-08-03T05:00:29.248Z,10.87
2022-08-03T05:02:56.631Z,4.30
2022-08-03T05:05:24.031Z,3.23
2022-08-03T05:07:51.468Z,3.40
2022-08-03T05:10:20.469Z,3.70
2022-08-03T05:12:48.917Z,2.50
2022-08-03T05:15:16.305Z,3.60
2022-08-03T05:17:43.438Z,2.60
2022-08-03T05:20:11.808Z,3.10
2022-08-03T05:22:39.009Z,2.80
2022-08-03T05:25:06.414Z,2.80
2022-08-03T05:27:33.489Z,2.87
2022-08-03T05:30:29.866Z,2.57
2022-08-03T05:32:47.783Z,2.50
2022-08-03T05:36:01.507Z,2.90
2022-08-03T05:38:03.667Z,2.67
2022-08-03T05:40:30.872Z,3.23
2022-08-03T05:42:59.028Z,2.90
2022-08-03T05:45:28.405Z,3.57
2022-08-03T05:47:56.081Z,3.50
2022-08-03T05:50:23.434Z,3.40
2022-08-03T05:52:50.584Z,2.90
2022-08-03T05:55:19.137Z,2.80
2022-08-03T05:57:47.115Z,2.60
2022-08-03T06:00:17.427Z,3.40
2022-08-03T06:02:45.965Z,3.17
2022-08-03T06:05:13.084Z,7.83
2022-08-03T06:07:40.151Z,1.83
2022-08-03T06:10:36.061Z,2.30
2022-08-03T06:12:55.973Z,2.53
2022-08-03T06:15:23.342Z,2.63
2022-08-03T06:17:52.107Z,1.70
2022-08-03T06:20:21.268Z,1.70
2022-08-03T06:23:00.138Z,1.80
2022-08-03T06:25:29.112Z,1.60
2022-08-03T06:27:56.326Z,1.30
2022-08-03T06:30:23.426Z,1.90
2022-08-03T06:32:51.915Z,1.27
2022-08-03T06:35:20.124Z,1.13
2022-08-03T06:37:50.252Z,2.00
2022-08-03T06:40:21.804Z,11.10
2022-08-03T06:42:51.773Z,14.55
2022-08-03T06:45:18.887Z,2.85
2022-08-03T06:47:46.139Z,1.88
2022-08-03T06:50:17.009Z,1.05
2022-08-03T06:52:45.414Z,1.30
2022-08-03T06:55:12.764Z,2.13
2022-08-03T06:57:39.792Z,1.33
2022-08-03T07:00:12.302Z,1.17
2022-08-03T07:02:40.418Z,1.15
2022-08-03T07:05:09.484Z,0.90
2022-08-03T07:07:37.535Z,1.13
2022-08-03T07:10:06.552Z,0.82
2022-08-03T07:12:34.726Z,0.95
2022-08-03T07:15:03.580Z,1.30
2022-08-03T07:17:33.688Z,0.95
2022-08-03T07:20:02.284Z,2.28
2022-08-03T07:22:29.458Z,1.17
2022-08-03T07:24:56.866Z,1.00
2022-08-03T07:27:26.950Z,1.20
2022-08-03T07:29:55.072Z,0.70
2022-08-03T07:32:22.539Z,1.00
2022-08-03T07:34:49.597Z,0.98
2022-08-03T07:37:16.816Z,0.93
2022-08-03T07:39:43.925Z,0.88
2022-08-03T07:42:11.071Z,0.98
2022-08-03T07:44:39.387Z,0.85
2022-08-03T07:47:06.718Z,0.68
2022-08-03T07:52:28.346Z,1.45
2022-08-03T07:54:55.848Z,0.93
2022-08-03T07:57:23.345Z,0.52
2022-08-03T08:00:01.322Z,0.90
2022-08-03T08:02:29.204Z,0.80
2022-08-03T08:04:56.326Z,0.70
2022-08-03T08:07:23.762Z,0.65
2022-08-03T08:09:50.941Z,0.50
2022-08-03T08:12:18.567Z,0.60
2022-08-03T08:14:48.360Z,1.15
2022-08-03T08:17:15.522Z,0.70
2022-08-03T08:19:48.327Z,0.68
2022-08-03T08:22:23.513Z,0.70
2022-08-03T08:24:59.457Z,1.00
2022-08-03T08:27:26.657Z,0.50
2022-08-03T08:29:54.532Z,0.70
2022-08-03T08:32:24.604Z,0.70
2022-08-03T08:34:51.795Z,2.58
2022-08-03T08:37:18.878Z,5.68
2022-08-03T08:39:47.753Z,3.40
2022-08-03T08:42:16.267Z,0.82
2022-08-03T08:44:43.569Z,0.73
2022-08-03T08:47:11.102Z,0.90
2022-08-03T08:49:46.494Z,0.85
2022-08-03T08:52:29.680Z,0.60
2022-08-03T08:55:05.762Z,0.98
2022-08-03T08:57:43.533Z,0.50
2022-08-03T09:00:15.326Z,0.60
2022-08-03T09:02:47.050Z,0.70
2022-08-03T09:05:18.217Z,0.60
2022-08-03T09:07:47.287Z,0.65
2022-08-03T09:10:19.884Z,0.68
2022-08-03T09:12:51.181Z,0.52
2022-08-03T09:15:24.994Z,0.60
2022-08-03T09:17:56.492Z,0.60
2022-08-03T09:20:26.566Z,0.60
2022-08-03T09:23:18.057Z,0.50
2022-08-03T09:26:00.133Z,0.60
2022-08-03T09:28:59.916Z,0.60
2022-08-03T09:31:39.103Z,0.55
2022-08-03T09:34:13.791Z,0.70
2022-08-03T09:36:49.985Z,0.60
2022-08-03T09:39:40.683Z,0.50
2022-08-03T09:42:23.961Z,0.55
2022-08-03T09:44:52.510Z,0.60
2022-08-03T09:47:36.389Z,0.80
2022-08-03T09:50:08.856Z,0.50
2022-08-03T09:52:49.587Z,0.82
2022-08-03T09:56:05.173Z,0.43
2022-08-03T09:58:11.101Z,0.50
2022-08-03T10:00:59.639Z,0.70
2022-08-03T10:03:30.634Z,0.60
2022-08-03T10:06:00.059Z,0.60
2022-08-03T10:08:27.581Z,0.50
2022-08-03T10:10:54.741Z,0.60
2022-08-03T10:13:23.546Z,1.02
2022-08-03T10:16:24.209Z,0.50
2022-08-03T10:18:38.427Z,0.65
2022-08-03T10:21:10.845Z,1.05
2022-08-03T10:23:40.467Z,0.82
2022-08-03T10:26:08.705Z,0.85
2022-08-03T10:28:48.984Z,0.60
2022-08-03T10:31:18.730Z,0.65
2022-08-03T10:33:53.218Z,0.55
2022-08-03T10:36:26.904Z,4.15
2022-08-03T10:38:57.107Z,0.70
2022-08-03T10:41:32.595Z,0.70
2022-08-03T10:44:18.021Z,0.80
2022-08-03T10:46:48.496Z,0.88
2022-08-03T10:49:31.841Z,0.88
2022-08-03T10:52:09.674Z,0.50
2022-08-03T10:55:03.488Z,0.73
2022-08-03T10:57:58.602Z,1.10
2022-08-03T11:00:30.449Z,0.77
2022-08-03T11:03:15.501Z,0.70
2022-08-03T11:05:50.167Z,0.90
2022-08-03T11:08:34.800Z,0.87
2022-08-03T11:11:23.620Z,1.03
2022-08-03T11:14:07.687Z,1.00
2022-08-03T11:16:38.934Z,0.80
2022-08-03T11:19:11.986Z,0.70
2022-08-03T11:21:51.489Z,0.97
2022-08-03T11:24:37.183Z,1.00
2022-08-03T11:27:38.314Z,1.30
2022-08-03T11:30:19.307Z,1.30
2022-08-03T11:32:51.628Z,1.13
2022-08-03T11:35:31.558Z,1.37
2022-08-03T11:38:03.058Z,0.90
2022-08-03T11:40:49.369Z,1.13
2022-08-03T11:43:22.525Z,1.47
2022-08-03T11:46:07.782Z,1.17
2022-08-03T11:48:35.908Z,1.53
2022-08-03T11:51:05.713Z,1.40
2022-08-03T11:53:33.762Z,1.07
2022-08-03T11:56:12.627Z,1.60
2022-08-03T11:59:01.236Z,1.30
2022-08-03T12:01:37.617Z,4.23
2022-08-03T12:04:05.988Z,5.53
2022-08-03T12:06:55.007Z,1.50
2022-08-03T12:09:22.530Z,1.70
2022-08-03T12:11:59.774Z,1.40
2022-08-03T12:14:48.420Z,1.33
2022-08-03T12:17:18.032Z,1.47
2022-08-03T12:19:45.738Z,1.33
2022-08-03T12:22:13.598Z,1.27
2022-08-03T12:24:47.227Z,0.97
2022-08-03T12:27:29.782Z,1.40
2022-08-03T12:29:59.281Z,1.60
2022-08-03T12:32:28.377Z,1.27
2022-08-03T12:35:01.848Z,1.17
2022-08-03T12:37:29.639Z,1.00
2022-08-03T12:40:07.995Z,1.10
2022-08-03T12:42:39.392Z,1.40
2022-08-03T12:45:28.492Z,1.03
2022-08-03T12:47:59.472Z,1.00
2022-08-03T12:50:36.112Z,0.93
2022-08-03T12:53:07.920Z,0.90
2022-08-03T12:56:05.151Z,1.10
2022-08-03T12:58:36.083Z,1.07
2022-08-03T13:01:09.869Z,1.30
2022-08-03T13:03:50.226Z,0.80
2022-08-03T13:06:28.652Z,1.10
2022-08-03T13:09:07.679Z,1.67
2022-08-03T13:11:52.567Z,1.67
2022-08-03T13:14:23.673Z,1.20
2022-08-03T13:16:51.197Z,1.67
2022-08-03T13:19:18.319Z,1.30
2022-08-03T13:22:01.760Z,1.43
2022-08-03T13:24:32.780Z,1.37
2022-08-03T13:27:00.680Z,1.27
2022-08-03T13:29:47.767Z,1.33
2022-08-03T13:32:14.886Z,1.43
2022-08-03T13:34:42.308Z,1.40
2022-08-03T13:37:19.812Z,1.20
2022-08-03T13:39:58.379Z,1.17
2022-08-03T13:42:28.729Z,1.27
2022-08-03T13:44:55.964Z,1.57
2022-08-03T13:47:23.118Z,8.00
2022-08-03T13:50:00.269Z,2.17
2022-08-03T13:52:34.556Z,1.30
2022-08-03T13:55:04.950Z,1.20
2022-08-03T13:58:05.337Z,1.13
2022-08-03T14:00:27.365Z,1.20
2022-08-03T14:03:12.838Z,1.60
2022-08-03T14:05:41.715Z,1.40
2022-08-03T14:08:09.854Z,1.30
2022-08-03T14:10:41.878Z,1.53
2022-08-03T14:13:11.089Z,1.07
2022-08-03T14:15:38.755Z,1.10
2022-08-03T14:18:12.992Z,1.97
2022-08-03T14:20:50.026Z,1.47
2022-08-03T14:23:18.993Z,1.37
2022-08-03T14:25:51.789Z,1.40
2022-08-03T14:28:24.066Z,1.07
2022-08-03T14:30:56.105Z,7.90
2022-08-03T14:33:24.143Z,1.37
2022-08-03T14:35:52.269Z,1.17
2022-08-03T14:38:19.567Z,1.40
2022-08-03T14:40:47.300Z,1.40
2022-08-03T14:43:15.394Z,1.53
2022-08-03T14:45:42.883Z,1.30
2022-08-03T14:49:02.547Z,1.50
2022-08-03T14:50:57.398Z,1.03
2022-08-03T14:53:24.517Z,1.33
2022-08-03T14:55:53.349Z,1.27
2022-08-03T14:58:22.913Z,1.00
2022-08-03T15:00:52.825Z,0.90
2022-08-03T15:03:23.991Z,1.20
2022-08-03T15:05:56.605Z,1.33
2022-08-03T15:08:25.836Z,1.30
2022-08-03T15:10:54.389Z,1.10
2022-08-03T15:13:22.316Z,1.43
2022-08-03T15:15:49.931Z,1.30
2022-08-03T15:18:17.201Z,1.30
2022-08-03T15:20:45.946Z,1.80
2022-08-03T15:23:15.291Z,1.53
2022-08-03T15:26:28.726Z,1.50
2022-08-03T15:28:34.134Z,1.23
2022-08-03T15:31:04.750Z,1.30
2022-08-03T15:33:32.021Z,1.00
2022-08-03T15:36:00.308Z,1.27
2022-08-03T15:38:27.365Z,1.60
2022-08-03T15:40:55.325Z,1.50
2022-08-03T15:43:23.678Z,1.20
2022-08-03T15:46:19.122Z,2.07
2022-08-03T15:48:38.874Z,1.17
2022-08-03T15:51:08.163Z,1.83
2022-08-03T15:53:35.357Z,1.50
2022-08-03T15:56:08.042Z,1.37
2022-08-03T15:59:10.144Z,1.53
2022-08-03T16:01:27.623Z,1.57
2022-08-03T16:03:54.721Z,1.10
2022-08-03T16:06:29.918Z,1.57
2022-08-03T16:09:04.608Z,1.30
2022-08-03T16:11:31.834Z,1.90
2022-08-03T16:14:13.553Z,1.67
2022-08-03T16:16:46.727Z,1.27
2022-08-03T16:19:13.968Z,1.37
2022-08-03T16:21:48.161Z,0.97
2022-08-03T16:24:19.836Z,1.10
2022-08-03T16:26:54.762Z,1.60
2022-08-03T16:29:22.286Z,1.40
2022-08-03T16:31:51.159Z,2.20
2022-08-03T16:34:18.554Z,3.07
2022-08-03T16:36:46.165Z,1.40
2022-08-03T16:39:13.400Z,1.70
2022-08-03T16:41:54.414Z,1.43
2022-08-03T16:44:30.978Z,1.53
2022-08-03T16:46:59.707Z,1.40
2022-08-03T16:49:53.990Z,1.70
2022-08-03T16:52:13.967Z,2.10
2022-08-03T16:54:44.530Z,3.17
2022-08-03T16:57:29.763Z,1.53
2022-08-03T17:00:12.209Z,1.30
2022-08-03T17:03:01.203Z,1.40
2022-08-03T17:05:43.574Z,1.70
2022-08-03T17:08:15.539Z,2.07
2022-08-03T17:10:45.555Z,1.50
2022-08-03T17:13:21.490Z,1.70
2022-08-03T17:15:57.974Z,2.10
2022-08-03T17:18:32.457Z,1.50
2022-08-03T17:21:06.205Z,47.40
2022-08-03T17:23:49.927Z,3.00
2022-08-03T17:26:22.043Z,5.20
2022-08-03T17:28:57.455Z,2.20
2022-08-03T17:31:30.896Z,3.50
2022-08-03T17:34:04.297Z,2.77
2022-08-03T17:37:02.232Z,2.37
2022-08-03T17:39:35.913Z,2.80
2022-08-03T17:44:57.580Z,2.57
2022-08-03T17:47:29.266Z,1.63
2022-08-03T17:50:23.471Z,1.90
2022-08-03T17:53:07.061Z,2.10
2022-08-03T17:55:56.147Z,2.30
2022-08-03T17:58:53.568Z,2.10
2022-08-03T18:01:59.996Z,2.20
2022-08-03T18:04:42.969Z,2.03
2022-08-03T18:07:12.682Z,2.45
2022-08-03T18:10:10.877Z,1.87
2022-08-03T18:13:10.308Z,2.00
2022-08-03T18:15:53.606Z,1.70
2022-08-03T18:18:37.154Z,1.97
2022-08-03T18:21:09.421Z,1.93
2022-08-03T18:23:50.929Z,2.40
2022-08-03T18:26:18.907Z,2.20
2022-08-03T18:28:48.488Z,2.97
2022-08-03T18:31:59.682Z,1.67
2022-08-03T18:34:16.564Z,2.23
2022-08-03T18:36:54.779Z,2.20
2022-08-03T18:39:23.218Z,2.50
2022-08-03T18:41:50.337Z,2.70
2022-08-03T18:44:53.391Z,2.63
2022-08-03T18:47:51.606Z,2.53
2022-08-03T18:50:39.045Z,2.53
2022-08-03T18:53:22.111Z,2.40
2022-08-03T18:56:20.602Z,3.13
2022-08-03T18:59:02.227Z,2.23
2022-08-03T19:01:57.904Z,2.70
2022-08-03T19:04:36.666Z,2.53
2022-08-03T19:07:08.164Z,3.93
2022-08-03T19:09:41.787Z,3.50
2022-08-03T19:12:39.772Z,3.20
2022-08-03T19:15:13.126Z,4.30
2022-08-03T19:17:52.966Z,5.50
2022-08-03T19:20:31.081Z,4.53
2022-08-03T19:22:59.863Z,4.60
2022-08-03T19:25:33.402Z,4.77
2022-08-03T19:28:06.191Z,4.13
2022-08-03T19:30:40.133Z,4.50
2022-08-03T19:33:13.781Z,5.10
2022-08-03T19:35:51.869Z,4.40
2022-08-03T19:38:27.422Z,4.30
2022-08-03T19:41:01.164Z,4.03
2022-08-03T19:43:52.850Z,5.67
2022-08-03T19:46:30.657Z,7.07
2022-08-03T19:49:15.157Z,6.50
2022-08-03T19:52:02.159Z,7.10
2022-08-03T19:54:53.239Z,6.23
2022-08-03T19:57:27.393Z,7.90
2022-08-03T19:59:57.013Z,8.13
2022-08-03T20:02:27.290Z,10.37
2022-08-03T20:04:57.170Z,8.83
2022-08-03T20:07:26.406Z,7.43
2022-08-03T20:09:56.631Z,10.37
2022-08-03T20:12:27.805Z,9.73
2022-08-03T20:15:14.521Z,8.60
2022-08-03T20:17:54.435Z,10.50
2022-08-03T20:20:36.444Z,10.20
2022-08-03T20:23:16.580Z,10.10
2022-08-03T20:26:00.548Z,11.93
2022-08-03T20:28:50.403Z,10.47
2022-08-03T20:31:23.802Z,11.83
2022-08-03T20:34:01.045Z,10.80
2022-08-03T20:36:28.558Z,19.30
2022-08-03T20:38:58.006Z,7.97
2022-08-03T20:41:25.566Z,16.00
2022-08-03T20:43:52.978Z,10.83
2022-08-03T20:46:29.597Z,16.30
2022-08-03T20:49:05.295Z,14.20
2022-08-03T20:51:50.226Z,12.20
2022-08-03T20:54:30.611Z,10.33
2022-08-03T20:57:03.764Z,13.20
2022-08-03T20:59:50.500Z,10.37
2022-08-03T21:02:30.458Z,12.60
2022-08-03T21:05:03.481Z,6.30
2022-08-03T21:08:03.725Z,8.53
2022-08-03T21:10:31.356Z,7.50
2022-08-03T21:12:54.738Z,2.10
2022-08-03T21:16:02.934Z,9.83
2022-08-03T21:18:54.768Z,7.30
2022-08-03T21:21:23.968Z,6.90
2022-08-03T21:23:53.808Z,7.33
2022-08-03T21:26:26.439Z,7.40
2022-08-03T21:28:56.420Z,7.60
2022-08-03T21:31:26.606Z,9.90
2022-08-03T21:33:56.559Z,15.10
2022-08-03T21:36:28.772Z,11.50
2022-08-03T21:38:57.522Z,11.90
2022-08-03T21:41:31.999Z,11.63
2022-08-03T21:44:00.629Z,11.27
2022-08-03T21:46:37.876Z,11.70
2022-08-03T21:50:05.077Z,10.80
2022-08-03T21:51:59.847Z,11.20
2022-08-03T21:54:36.433Z,11.57
2022-08-03T21:57:17.472Z,10.87
2022-08-03T22:00:04.446Z,11.37
2022-08-03T22:02:33.114Z,11.03
2022-08-03T22:05:00.509Z,11.60
2022-08-03T22:07:32.818Z,11.50
2022-08-03T22:10:02.029Z,8.70
2022-08-03T22:12:32.043Z,8.10
2022-08-03T22:15:02.303Z,8.20
2022-08-03T22:17:55.191Z,10.90
2022-08-03T22:20:24.899Z,9.47
2022-08-03T22:22:57.033Z,10.90
2022-08-03T22:25:29.357Z,9.20
2022-08-03T22:28:04.316Z,9.97
2022-08-03T22:30:33.686Z,7.83
2022-08-03T22:33:04.455Z,7.17
2022-08-03T22:35:44.450Z,6.93
2022-08-03T22:38:17.005Z,10.50
2022-08-03T22:40:46.806Z,10.40
2022-08-03T22:43:14.297Z,8.50
2022-08-03T22:46:09.654Z,9.67
2022-08-03T22:48:35.317Z,11.50
2022-08-03T22:51:07.725Z,7.57
2022-08-03T22:53:36.315Z,6.40
2022-08-03T22:56:04.219Z,8.90
2022-08-03T22:58:31.437Z,8.07
2022-08-03T23:01:07.680Z,8.10
2022-08-03T23:04:01.092Z,8.07
2022-08-03T23:06:33.596Z,9.70
2022-08-03T23:09:04.870Z,8.93
2022-08-03T23:11:38.131Z,9.87
2022-08-03T23:14:16.434Z,6.80
2022-08-03T23:16:46.277Z,8.40
2022-08-03T23:19:17.066Z,6.80
2022-08-03T23:22:02.673Z,6.93
2022-08-03T23:24:33.984Z,8.60
2022-08-03T23:27:07.623Z,7.53
2022-08-03T23:29:37.034Z,8.80
2022-08-03T23:32:06.092Z,6.80
2022-08-03T23:34:52.275Z,4.90
2022-08-03T23:37:23.097Z,7.70
2022-08-03T23:39:51.015Z,7.57
2022-08-03T23:42:20.033Z,6.50
2022-08-03T23:44:47.526Z,7.07
2022-08-03T23:47:14.640Z,6.77
2022-08-03T23:49:41.703Z,7.50
2022-08-03T23:52:11.808Z,7.47
2022-08-03T23:55:15.636Z,7.67
2022-08-03T23:58:10.922Z,6.60
